createdAt,value
2018-09-29T00:00:06.121Z,4.3
2018-09-29T00:00:36.456Z,3.7
2018-09-29T00:01:05.849Z,4
2018-09-29T00:01:35.340Z,3.5
2018-09-29T00:02:05.185Z,3.6
2018-09-29T00:02:34.713Z,3.5
2018-09-29T00:03:04.229Z,3.7
2018-09-29T00:03:33.760Z,3.3
2018-09-29T00:04:03.083Z,3.5
2018-09-29T00:04:32.530Z,3.5
2018-09-29T00:05:02.852Z,3.5
2018-09-29T00:05:32.541Z,3.5
2018-09-29T00:06:02.951Z,3.6
2018-09-29T00:06:32.528Z,3.4
2018-09-29T00:07:01.827Z,3.2
2018-09-29T00:07:31.157Z,3.3
2018-09-29T00:08:00.484Z,3.7
2018-09-29T00:08:29.922Z,3.8
2018-09-29T00:08:59.172Z,3.6
2018-09-29T00:09:28.901Z,3.8
2018-09-29T00:09:58.463Z,3.6
2018-09-29T00:10:28.838Z,3.8
2018-09-29T00:10:58.303Z,3.8
2018-09-29T00:11:28.091Z,3.8
2018-09-29T00:11:57.933Z,4
2018-09-29T00:12:27.882Z,4
2018-09-29T00:12:57.757Z,4
2018-09-29T00:13:27.004Z,4.7
2018-09-29T00:13:56.302Z,4.1
2018-09-29T00:14:25.842Z,4
2018-09-29T00:14:55.643Z,4.1
2018-09-29T00:15:25.795Z,4.3
2018-09-29T00:15:55.209Z,4.5
2018-09-29T00:16:25.212Z,3.9
2018-09-29T00:16:54.604Z,4
2018-09-29T00:17:24.363Z,4.1
2018-09-29T00:17:53.953Z,4.1
2018-09-29T00:18:23.664Z,4.4
2018-09-29T00:18:52.954Z,4.1
2018-09-29T00:19:22.232Z,4.3
2018-09-29T00:19:51.550Z,3.8
2018-09-29T00:20:20.824Z,4
2018-09-29T00:20:50.157Z,4
2018-09-29T00:21:19.481Z,3.8
2018-09-29T00:21:48.776Z,3.9
2018-09-29T00:22:18.102Z,4.2
2018-09-29T00:22:49.586Z,3.7
2018-09-29T00:23:22.112Z,4.1
2018-09-29T00:23:51.933Z,4.2
2018-09-29T00:24:21.454Z,4.3
2018-09-29T00:24:50.835Z,3.9
2018-09-29T00:25:20.347Z,4
2018-09-29T00:25:49.901Z,4
2018-09-29T00:26:19.210Z,4.1
2018-09-29T00:26:48.882Z,4
2018-09-29T00:27:18.680Z,4
2018-09-29T00:27:48.044Z,3.9
2018-09-29T00:28:17.427Z,4.1
2018-09-29T00:28:46.912Z,4.1
2018-09-29T00:29:16.721Z,4
2018-09-29T00:29:46.558Z,4.2
2018-09-29T00:30:15.867Z,3.9
2018-09-29T00:30:45.474Z,4
2018-09-29T00:31:15.151Z,4.1
2018-09-29T00:31:45.068Z,3.8
2018-09-29T00:32:14.570Z,4
2018-09-29T00:32:44.008Z,3.8
2018-09-29T00:33:13.913Z,4.1
2018-09-29T00:33:43.613Z,4
2018-09-29T00:34:13.363Z,4
2018-09-29T00:34:43.535Z,3.9
2018-09-29T00:35:13.118Z,3.9
2018-09-29T00:35:43.461Z,3.9
2018-09-29T00:36:12.780Z,3.9
2018-09-29T00:36:43.341Z,4.1
2018-09-29T00:37:12.639Z,4
2018-09-29T00:37:42.132Z,4
2018-09-29T00:38:11.700Z,4
2018-09-29T00:38:41.090Z,4.4
2018-09-29T00:39:10.714Z,4.2
2018-09-29T00:39:40.253Z,5
2018-09-29T00:40:09.924Z,4.6
2018-09-29T00:40:39.252Z,3.9
2018-09-29T00:41:08.560Z,4
2018-09-29T00:41:37.941Z,4.5
2018-09-29T00:42:07.322Z,4.1
2018-09-29T00:42:36.630Z,4
2018-09-29T00:43:05.968Z,4
2018-09-29T00:43:35.267Z,3.9
2018-09-29T00:44:04.658Z,3.9
2018-09-29T00:44:37.130Z,4.1
2018-09-29T00:45:10.667Z,3.6
2018-09-29T00:45:41.149Z,3.9
2018-09-29T00:46:10.899Z,3.7
2018-09-29T00:46:40.426Z,4.2
2018-09-29T00:47:10.661Z,4.2
2018-09-29T00:47:39.909Z,4.1
2018-09-29T00:48:09.520Z,3.8
2018-09-29T00:48:39.051Z,3.9
2018-09-29T00:49:09.014Z,3.6
2018-09-29T00:49:39.204Z,4
2018-09-29T00:50:09.247Z,3.6
2018-09-29T00:50:38.961Z,3.6
2018-09-29T00:51:08.441Z,3.7
2018-09-29T00:51:38.272Z,3.8
2018-09-29T00:52:07.860Z,4
2018-09-29T00:52:37.327Z,3.3
2018-09-29T00:53:07.306Z,3.4
2018-09-29T00:53:37.272Z,3.5
2018-09-29T00:54:06.975Z,3.4
2018-09-29T00:54:36.834Z,3.5
2018-09-29T00:55:06.770Z,3.5
2018-09-29T00:55:36.077Z,3.3
2018-09-29T00:56:05.941Z,3.6
2018-09-29T00:56:35.857Z,3.7
2018-09-29T00:57:05.258Z,3.7
2018-09-29T00:57:36.215Z,3.3
2018-09-29T00:58:05.856Z,3.6
2018-09-29T00:58:36.830Z,3.7
2018-09-29T00:59:06.889Z,3.5
2018-09-29T00:59:36.560Z,3.3
2018-09-29T01:00:06.123Z,3.3
2018-09-29T01:00:35.963Z,3.3
2018-09-29T01:01:05.420Z,3.9
2018-09-29T01:01:35.128Z,4.2
2018-09-29T01:02:04.624Z,3.6
2018-09-29T01:02:33.950Z,3.6
2018-09-29T01:03:03.283Z,3.4
2018-09-29T01:03:32.552Z,3.7
2018-09-29T01:04:01.868Z,3.4
2018-09-29T01:04:31.249Z,3.4
2018-09-29T01:05:00.563Z,3.6
2018-09-29T01:05:29.860Z,3.4
2018-09-29T01:05:59.219Z,3.6
2018-09-29T01:06:30.269Z,3.5
2018-09-29T01:07:02.107Z,3.8
2018-09-29T01:07:31.785Z,3.5
2018-09-29T01:08:03.059Z,3.6
2018-09-29T01:08:35.275Z,3.4
2018-09-29T01:09:05.424Z,3.5
2018-09-29T01:09:36.519Z,3.4
2018-09-29T01:10:09.060Z,3.7
2018-09-29T01:10:38.881Z,3.4
2018-09-29T01:11:09.010Z,3.4
2018-09-29T01:11:38.699Z,3.4
2018-09-29T01:12:11.278Z,3.7
2018-09-29T01:12:43.721Z,5.7
2018-09-29T01:13:13.182Z,3.8
2018-09-29T01:13:42.570Z,3.5
2018-09-29T01:14:12.180Z,3.8
2018-09-29T01:14:41.947Z,4
2018-09-29T01:15:11.944Z,3.7
2018-09-29T01:15:41.449Z,3.6
2018-09-29T01:16:10.941Z,3.7
2018-09-29T01:16:41.518Z,3.9
2018-09-29T01:17:13.063Z,4
2018-09-29T01:17:43.272Z,3.9
2018-09-29T01:18:12.907Z,3.7
2018-09-29T01:18:42.735Z,4.4
2018-09-29T01:19:12.829Z,4.5
2018-09-29T01:19:42.695Z,5.8
2018-09-29T01:20:13.650Z,4.5
2018-09-29T01:20:43.339Z,3.9
2018-09-29T01:21:12.934Z,3.9
2018-09-29T01:21:42.526Z,3.9
2018-09-29T01:22:12.353Z,3.9
2018-09-29T01:22:42.079Z,3.9
2018-09-29T01:23:11.601Z,3.6
2018-09-29T01:23:41.268Z,3.6
2018-09-29T01:24:11.722Z,4.1
2018-09-29T01:24:41.129Z,4.5
2018-09-29T01:25:11.332Z,3.9
2018-09-29T01:25:40.703Z,3.9
2018-09-29T01:26:10.430Z,4.4
2018-09-29T01:26:39.690Z,4.4
2018-09-29T01:27:09.057Z,4
2018-09-29T01:27:38.363Z,3.9
2018-09-29T01:28:07.671Z,4.4
2018-09-29T01:28:39.810Z,4.6
2018-09-29T01:29:11.896Z,4.6
2018-09-29T01:29:41.822Z,4
2018-09-29T01:30:11.522Z,4.1
2018-09-29T01:30:40.831Z,3.8
2018-09-29T01:31:10.238Z,4.2
2018-09-29T01:31:39.629Z,4.2
2018-09-29T01:32:09.128Z,4
2018-09-29T01:32:38.895Z,3.8
2018-09-29T01:33:08.407Z,4
2018-09-29T01:33:38.007Z,4.2
2018-09-29T01:34:07.429Z,3.9
2018-09-29T01:34:36.840Z,4.1
2018-09-29T01:35:06.183Z,3.9
2018-09-29T01:35:35.558Z,4.1
2018-09-29T01:36:04.885Z,4.3
2018-09-29T01:36:34.233Z,4.1
2018-09-29T01:37:03.503Z,3.8
2018-09-29T01:37:32.893Z,3.6
2018-09-29T01:38:02.219Z,3.8
2018-09-29T01:38:32.383Z,3.7
2018-09-29T01:39:01.722Z,3.9
2018-09-29T01:39:31.156Z,4
2018-09-29T01:40:00.472Z,3.6
2018-09-29T01:40:29.855Z,3.8
2018-09-29T01:40:59.149Z,3.7
2018-09-29T01:41:28.540Z,3.7
2018-09-29T01:41:57.836Z,3.5
2018-09-29T01:42:27.195Z,3.5
2018-09-29T01:42:56.533Z,3.3
2018-09-29T01:43:25.888Z,3.4
2018-09-29T01:43:55.250Z,3.5
2018-09-29T01:44:24.577Z,3.5
2018-09-29T01:44:53.906Z,3.7
2018-09-29T01:45:23.349Z,3.3
2018-09-29T01:45:52.719Z,3.8
2018-09-29T01:46:22.114Z,3.4
2018-09-29T01:46:51.497Z,3.9
2018-09-29T01:47:20.811Z,3.8
2018-09-29T01:47:50.232Z,3.7
2018-09-29T01:48:19.651Z,3.7
2018-09-29T01:48:48.963Z,3.7
2018-09-29T01:49:18.327Z,3.6
2018-09-29T01:49:47.619Z,3.8
2018-09-29T01:50:16.912Z,3.6
2018-09-29T01:50:46.214Z,3.7
2018-09-29T01:51:15.583Z,4.2
2018-09-29T01:51:44.879Z,4.8
2018-09-29T01:52:16.140Z,4.4
2018-09-29T01:52:45.573Z,3.8
2018-09-29T01:53:14.864Z,3.8
2018-09-29T01:53:44.164Z,3.8
2018-09-29T01:54:13.479Z,3.8
2018-09-29T01:54:42.770Z,3.9
2018-09-29T01:55:12.059Z,4.1
2018-09-29T01:55:41.367Z,4
2018-09-29T01:56:10.662Z,4.5
2018-09-29T01:56:39.952Z,4.1
2018-09-29T01:57:09.250Z,3.6
2018-09-29T01:57:38.545Z,4.1
2018-09-29T01:58:07.878Z,3.9
2018-09-29T01:58:37.226Z,4.6
2018-09-29T01:59:06.494Z,4.3
2018-09-29T01:59:35.772Z,4.5
2018-09-29T02:00:05.021Z,4.3
2018-09-29T02:00:34.301Z,4.4
2018-09-29T02:01:03.573Z,4.3
2018-09-29T02:01:32.850Z,3.9
2018-09-29T02:02:02.123Z,4.1
2018-09-29T02:02:31.410Z,4.2
2018-09-29T02:03:00.746Z,3.9
2018-09-29T02:03:30.120Z,4.6
2018-09-29T02:03:59.439Z,4.5
2018-09-29T02:04:29.709Z,4
2018-09-29T02:04:59.018Z,4.1
2018-09-29T02:05:28.314Z,3.9
2018-09-29T02:05:57.595Z,4.6
2018-09-29T02:06:26.907Z,4
2018-09-29T02:06:56.192Z,4.3
2018-09-29T02:07:26.487Z,4.2
2018-09-29T02:07:55.791Z,4.5
2018-09-29T02:08:25.070Z,4.3
2018-09-29T02:08:54.400Z,4.2
2018-09-29T02:09:23.685Z,4.5
2018-09-29T02:09:52.939Z,4.1
2018-09-29T02:10:22.209Z,4
2018-09-29T02:10:51.712Z,4
2018-09-29T02:11:21.095Z,4.4
2018-09-29T02:11:50.604Z,4.1
2018-09-29T02:12:19.995Z,4.1
2018-09-29T02:12:49.429Z,4.1
2018-09-29T02:13:18.705Z,4.6
2018-09-29T02:13:48.027Z,4.5
2018-09-29T02:14:17.398Z,4.1
2018-09-29T02:14:46.696Z,4.4
2018-09-29T02:15:15.964Z,4.4
2018-09-29T02:15:45.254Z,4.5
2018-09-29T02:16:14.540Z,4.4
2018-09-29T02:16:44.787Z,4.1
2018-09-29T02:17:14.050Z,4.3
2018-09-29T02:17:43.321Z,4.3
2018-09-29T02:18:12.629Z,4.3
2018-09-29T02:18:41.966Z,4.4
2018-09-29T02:19:11.307Z,4
2018-09-29T02:19:40.628Z,4.5
2018-09-29T02:20:10.898Z,4.2
2018-09-29T02:20:40.175Z,4.2
2018-09-29T02:21:09.484Z,4
2018-09-29T02:21:38.765Z,4.3
2018-09-29T02:22:08.061Z,3.8
2018-09-29T02:22:37.552Z,4.1
2018-09-29T02:23:06.775Z,3.9
2018-09-29T02:23:36.424Z,4.2
2018-09-29T02:24:05.935Z,4
2018-09-29T02:24:35.334Z,3.8
2018-09-29T02:25:04.976Z,3.9
2018-09-29T02:25:34.234Z,4.1
2018-09-29T02:26:03.500Z,4
2018-09-29T02:26:32.771Z,3.9
2018-09-29T02:27:02.205Z,3.8
2018-09-29T02:27:31.553Z,3.9
2018-09-29T02:28:00.866Z,3.8
2018-09-29T02:28:30.284Z,3.8
2018-09-29T02:28:59.633Z,3.8
2018-09-29T02:29:28.932Z,3.8
2018-09-29T02:29:58.244Z,4.1
2018-09-29T02:30:27.520Z,4.1
2018-09-29T02:30:56.832Z,3.9
2018-09-29T02:31:26.197Z,3.7
2018-09-29T02:31:55.492Z,3.7
2018-09-29T02:32:24.865Z,3.8
2018-09-29T02:32:54.208Z,4
2018-09-29T02:33:23.548Z,3.9
2018-09-29T02:33:52.855Z,4.2
2018-09-29T02:34:22.196Z,4.3
2018-09-29T02:34:51.486Z,4.1
2018-09-29T02:35:21.014Z,3.7
2018-09-29T02:35:50.315Z,4.2
2018-09-29T02:36:19.597Z,4.4
2018-09-29T02:36:48.889Z,3.9
2018-09-29T02:37:18.227Z,3.7
2018-09-29T02:37:47.549Z,4
2018-09-29T02:38:16.821Z,4
2018-09-29T02:38:46.129Z,3.9
2018-09-29T02:39:15.551Z,4
2018-09-29T02:39:45.816Z,4
2018-09-29T02:40:16.076Z,3.9
2018-09-29T02:40:45.542Z,3.8
2018-09-29T02:41:14.929Z,3.9
2018-09-29T02:41:44.288Z,4.2
2018-09-29T02:42:13.568Z,3.8
2018-09-29T02:42:42.866Z,3.8
2018-09-29T02:43:12.169Z,3.7
2018-09-29T02:43:41.517Z,3.9
2018-09-29T02:44:10.870Z,3.9
2018-09-29T02:44:40.165Z,3.6
2018-09-29T02:45:09.449Z,4
2018-09-29T02:45:38.791Z,4
2018-09-29T02:46:08.078Z,4.1
2018-09-29T02:46:37.384Z,4
2018-09-29T02:47:06.701Z,3.5
2018-09-29T02:47:36.049Z,3.9
2018-09-29T02:48:05.407Z,3.9
2018-09-29T02:48:34.713Z,4.1
2018-09-29T02:49:03.984Z,3.8
2018-09-29T02:49:33.357Z,3.9
2018-09-29T02:50:02.679Z,3.8
2018-09-29T02:50:31.978Z,3.7
2018-09-29T02:51:01.280Z,3.7
2018-09-29T02:51:31.592Z,3.9
2018-09-29T02:52:01.899Z,4
2018-09-29T02:52:31.279Z,4.1
2018-09-29T02:53:00.573Z,4.1
2018-09-29T02:53:29.885Z,4.1
2018-09-29T02:54:00.232Z,3.7
2018-09-29T02:54:29.558Z,3.9
2018-09-29T02:54:58.861Z,4
2018-09-29T02:55:28.138Z,4.1
2018-09-29T02:55:57.434Z,4.1
2018-09-29T02:56:26.715Z,3.8
2018-09-29T02:56:56.031Z,3.8
2018-09-29T02:57:25.329Z,4.3
2018-09-29T02:57:54.576Z,4.1
2018-09-29T02:58:23.853Z,3.9
2018-09-29T02:58:53.184Z,4.2
2018-09-29T02:59:22.505Z,4.2
2018-09-29T02:59:51.892Z,4.1
2018-09-29T03:00:21.211Z,4.4
2018-09-29T03:00:50.453Z,4.2
2018-09-29T03:01:19.770Z,4.3
2018-09-29T03:01:49.043Z,3.9
2018-09-29T03:02:18.321Z,4.4
2018-09-29T03:02:47.616Z,4.1
2018-09-29T03:03:16.920Z,4
2018-09-29T03:03:46.187Z,3.8
2018-09-29T03:04:15.489Z,4.1
2018-09-29T03:04:44.776Z,4.4
2018-09-29T03:05:14.116Z,3.9
2018-09-29T03:05:43.407Z,4.4
2018-09-29T03:06:12.709Z,4.2
2018-09-29T03:06:41.998Z,4.1
2018-09-29T03:07:11.347Z,4.1
2018-09-29T03:07:40.555Z,4
2018-09-29T03:08:09.862Z,4.2
2018-09-29T03:08:39.125Z,3.8
2018-09-29T03:09:08.454Z,3.6
2018-09-29T03:09:37.746Z,3.9
2018-09-29T03:10:07.118Z,3.8
2018-09-29T03:10:36.416Z,3.9
2018-09-29T03:11:05.680Z,4.1
2018-09-29T03:11:35.024Z,3.8
2018-09-29T03:12:04.283Z,4
2018-09-29T03:12:33.563Z,3.9
2018-09-29T03:13:02.827Z,3.8
2018-09-29T03:13:32.128Z,4.1
2018-09-29T03:14:01.481Z,4
2018-09-29T03:14:31.070Z,4.3
2018-09-29T03:15:01.438Z,4.2
2018-09-29T03:15:30.706Z,4
2018-09-29T03:15:59.998Z,4.2
2018-09-29T03:16:29.467Z,4.1
2018-09-29T03:16:58.954Z,4.2
2018-09-29T03:17:28.269Z,4.2
2018-09-29T03:17:57.630Z,4.5
2018-09-29T03:18:26.997Z,4.3
2018-09-29T03:18:56.333Z,4.4
2018-09-29T03:19:25.673Z,4.1
2018-09-29T03:19:54.889Z,4
2018-09-29T03:20:24.252Z,4.3
2018-09-29T03:20:53.633Z,4.1
2018-09-29T03:21:22.894Z,4.5
2018-09-29T03:21:52.194Z,4
2018-09-29T03:22:21.472Z,4.1
2018-09-29T03:22:50.742Z,4
2018-09-29T03:23:21.066Z,4.1
2018-09-29T03:23:50.423Z,4.5
2018-09-29T03:24:19.932Z,4.1
2018-09-29T03:24:50.204Z,4.2
2018-09-29T03:25:19.590Z,4.4
2018-09-29T03:25:49.075Z,4.2
2018-09-29T03:26:18.351Z,3.8
2018-09-29T03:26:48.088Z,4.3
2018-09-29T03:27:17.359Z,4.2
2018-09-29T03:27:47.768Z,4.1
2018-09-29T03:28:17.194Z,4.3
2018-09-29T03:28:46.542Z,3.9
2018-09-29T03:29:15.978Z,4
2018-09-29T03:29:46.375Z,4.3
2018-09-29T03:30:15.695Z,4
2018-09-29T03:30:45.122Z,3.9
2018-09-29T03:31:14.844Z,3.9
2018-09-29T03:31:44.752Z,4.1
2018-09-29T03:32:14.035Z,3.8
2018-09-29T03:32:43.264Z,4.1
2018-09-29T03:33:12.578Z,4.2
2018-09-29T03:33:42.030Z,4.2
2018-09-29T03:34:12.355Z,4.4
2018-09-29T03:34:41.718Z,4.2
2018-09-29T03:35:12.187Z,4
2018-09-29T03:35:41.516Z,3.8
2018-09-29T03:36:10.828Z,3.9
2018-09-29T03:36:40.167Z,4
2018-09-29T03:37:09.610Z,3.8
2018-09-29T03:37:39.306Z,4.1
2018-09-29T03:38:08.732Z,4
2018-09-29T03:38:38.090Z,3.9
2018-09-29T03:39:07.528Z,3.6
2018-09-29T03:39:36.996Z,3.9
2018-09-29T03:40:06.365Z,3.8
2018-09-29T03:40:35.729Z,4
2018-09-29T03:41:05.158Z,3.9
2018-09-29T03:41:34.474Z,3.9
2018-09-29T03:42:04.807Z,3.7
2018-09-29T03:42:34.101Z,3.7
2018-09-29T03:43:03.416Z,3.7
2018-09-29T03:43:32.714Z,3.6
2018-09-29T03:44:03.033Z,3.7
2018-09-29T03:44:33.032Z,3.7
2018-09-29T03:45:02.359Z,4.2
2018-09-29T03:45:31.796Z,3.6
2018-09-29T03:46:01.213Z,3.6
2018-09-29T03:46:30.964Z,3.8
2018-09-29T03:47:00.289Z,3.5
2018-09-29T03:47:29.690Z,3.7
2018-09-29T03:47:59.017Z,3.8
2018-09-29T03:48:28.354Z,3.6
2018-09-29T03:48:57.692Z,3.7
2018-09-29T03:49:27.130Z,3.1
2018-09-29T03:49:56.437Z,3.5
2018-09-29T03:50:25.729Z,3.4
2018-09-29T03:50:55.034Z,3.5
2018-09-29T03:51:24.563Z,3.4
2018-09-29T03:51:53.856Z,3.2
2018-09-29T03:52:23.208Z,3.4
2018-09-29T03:52:52.524Z,3.4
2018-09-29T03:53:22.067Z,3.5
2018-09-29T03:53:51.450Z,3.6
2018-09-29T03:54:20.819Z,3.6
2018-09-29T03:54:50.200Z,3.4
2018-09-29T03:55:19.514Z,3.6
2018-09-29T03:55:48.910Z,3.3
2018-09-29T03:56:18.345Z,3.4
2018-09-29T03:56:47.796Z,3
2018-09-29T03:57:17.158Z,3.3
2018-09-29T03:57:46.614Z,3.4
2018-09-29T03:58:15.911Z,3.3
2018-09-29T03:58:45.267Z,3.5
2018-09-29T03:59:15.056Z,3.2
2018-09-29T03:59:44.373Z,3.2
2018-09-29T04:00:13.728Z,3.2
2018-09-29T04:00:43.064Z,3.2
2018-09-29T04:01:12.363Z,3.2
2018-09-29T04:01:42.444Z,2.9
2018-09-29T04:02:11.938Z,3.1
2018-09-29T04:02:41.230Z,3.2
2018-09-29T04:03:10.516Z,3.6
2018-09-29T04:03:39.852Z,3
2018-09-29T04:04:09.122Z,3.3
2018-09-29T04:04:39.399Z,3.1
2018-09-29T04:05:08.678Z,3.5
2018-09-29T04:05:37.991Z,3.3
2018-09-29T04:06:07.335Z,3.2
2018-09-29T04:06:36.735Z,3.1
2018-09-29T04:07:07.035Z,3.4
2018-09-29T04:07:36.314Z,3.1
2018-09-29T04:08:05.667Z,3.1
2018-09-29T04:08:34.957Z,3.1
2018-09-29T04:09:05.273Z,3.3
2018-09-29T04:09:35.573Z,3.1
2018-09-29T04:10:05.932Z,3.4
2018-09-29T04:10:35.209Z,3.3
2018-09-29T04:11:04.571Z,3.1
2018-09-29T04:11:33.825Z,3.2
2018-09-29T04:12:03.148Z,3
2018-09-29T04:12:32.445Z,3.1
2018-09-29T04:13:01.715Z,3.1
2018-09-29T04:13:31.004Z,3.2
2018-09-29T04:14:00.387Z,3.1
2018-09-29T04:14:29.584Z,3.6
2018-09-29T04:14:59.909Z,3.2
2018-09-29T04:15:29.175Z,3.2
2018-09-29T04:15:58.440Z,3
2018-09-29T04:16:27.757Z,2.9
2018-09-29T04:16:57.111Z,3.2
2018-09-29T04:17:26.444Z,2.9
2018-09-29T04:17:55.741Z,3.2
2018-09-29T04:18:25.078Z,3
2018-09-29T04:18:54.359Z,3.3
2018-09-29T04:19:23.643Z,3.2
2018-09-29T04:19:53.982Z,3.1
2018-09-29T04:20:23.279Z,2.9
2018-09-29T04:20:52.631Z,3.4
2018-09-29T04:21:21.901Z,3
2018-09-29T04:21:51.188Z,2.9
2018-09-29T04:22:20.591Z,3.1
2018-09-29T04:22:49.900Z,3
2018-09-29T04:23:20.225Z,3.2
2018-09-29T04:23:49.557Z,3
2018-09-29T04:24:18.844Z,3.3
2018-09-29T04:24:48.187Z,3.2
2018-09-29T04:25:17.474Z,3.2
2018-09-29T04:25:46.789Z,3.3
2018-09-29T04:26:16.062Z,3.2
2018-09-29T04:26:45.361Z,3.5
2018-09-29T04:27:14.673Z,3.3
2018-09-29T04:27:44.092Z,3.4
2018-09-29T04:28:13.439Z,3.7
2018-09-29T04:28:42.715Z,3.4
2018-09-29T04:29:12.019Z,3.3
2018-09-29T04:29:41.315Z,3.3
2018-09-29T04:30:10.624Z,3.4
2018-09-29T04:30:39.962Z,3.2
2018-09-29T04:31:09.233Z,3.2
2018-09-29T04:31:38.569Z,3.3
2018-09-29T04:32:07.864Z,3.3
2018-09-29T04:32:37.248Z,3.2
2018-09-29T04:33:06.514Z,3.2
2018-09-29T04:33:35.852Z,3.3
2018-09-29T04:34:05.129Z,3.2
2018-09-29T04:34:35.440Z,3.2
2018-09-29T04:35:04.724Z,2.9
2018-09-29T04:35:34.052Z,3.2
2018-09-29T04:36:03.390Z,3.2
2018-09-29T04:36:32.697Z,3.2
2018-09-29T04:37:02.953Z,3.1
2018-09-29T04:37:32.284Z,3.4
2018-09-29T04:38:01.629Z,3.3
2018-09-29T04:38:30.883Z,3.2
2018-09-29T04:39:00.190Z,3.1
2018-09-29T04:39:29.482Z,3.1
2018-09-29T04:39:58.800Z,3
2018-09-29T04:40:28.119Z,3.1
2018-09-29T04:40:57.393Z,3.4
2018-09-29T04:41:26.693Z,3.3
2018-09-29T04:41:56.024Z,3.3
2018-09-29T04:42:25.342Z,3.5
2018-09-29T04:42:54.721Z,3.3
2018-09-29T04:43:24.002Z,3.4
2018-09-29T04:43:53.310Z,3.3
2018-09-29T04:44:22.619Z,3.1
2018-09-29T04:44:51.910Z,3.1
2018-09-29T04:45:21.257Z,2.9
2018-09-29T04:45:50.541Z,3.2
2018-09-29T04:46:19.863Z,3.3
2018-09-29T04:46:49.195Z,3.2
2018-09-29T04:47:18.581Z,3.3
2018-09-29T04:47:47.884Z,3.2
2018-09-29T04:48:17.253Z,3.2
2018-09-29T04:48:46.545Z,2.9
2018-09-29T04:49:15.916Z,3.4
2018-09-29T04:49:45.222Z,3.3
2018-09-29T04:50:14.558Z,3.2
2018-09-29T04:50:43.896Z,3.1
2018-09-29T04:51:13.214Z,3.2
2018-09-29T04:51:42.534Z,2.9
2018-09-29T04:52:11.917Z,3.1
2018-09-29T04:52:41.238Z,3.4
2018-09-29T04:53:10.602Z,3
2018-09-29T04:53:40.911Z,3.2
2018-09-29T04:54:10.172Z,3.3
2018-09-29T04:54:39.456Z,3.1
2018-09-29T04:55:08.779Z,3
2018-09-29T04:55:38.095Z,2.9
2018-09-29T04:56:07.924Z,3.1
2018-09-29T04:56:37.289Z,3
2018-09-29T04:57:06.573Z,2.9
2018-09-29T04:57:35.910Z,3.1
2018-09-29T04:58:06.252Z,3.1
2018-09-29T04:58:35.577Z,3.3
2018-09-29T04:59:04.882Z,3.1
2018-09-29T04:59:34.187Z,3.2
2018-09-29T05:00:03.519Z,3
2018-09-29T05:00:32.820Z,3.2
2018-09-29T05:01:02.203Z,3.1
2018-09-29T05:01:31.619Z,2.9
2018-09-29T05:02:00.986Z,3
2018-09-29T05:02:30.307Z,3.1
2018-09-29T05:02:59.614Z,3.4
2018-09-29T05:03:28.970Z,2.9
2018-09-29T05:03:58.269Z,3.1
2018-09-29T05:04:27.578Z,3
2018-09-29T05:04:56.857Z,3.1
2018-09-29T05:05:26.175Z,3.1
2018-09-29T05:05:55.472Z,3.1
2018-09-29T05:06:24.777Z,3.3
2018-09-29T05:06:54.053Z,3.2
2018-09-29T05:07:23.362Z,3.2
2018-09-29T05:07:52.634Z,3.1
2018-09-29T05:08:21.982Z,3.3
2018-09-29T05:08:51.320Z,3.2
2018-09-29T05:09:20.630Z,3.3
2018-09-29T05:09:49.925Z,3
2018-09-29T05:10:19.192Z,2.9
2018-09-29T05:10:49.469Z,3.3
2018-09-29T05:11:18.795Z,3.1
2018-09-29T05:11:48.160Z,3
2018-09-29T05:12:17.439Z,3.2
2018-09-29T05:12:46.717Z,3.2
2018-09-29T05:13:16.037Z,3
2018-09-29T05:13:45.443Z,3
2018-09-29T05:14:14.725Z,2.9
2018-09-29T05:14:44.080Z,2.8
2018-09-29T05:15:13.395Z,3.1
2018-09-29T05:15:42.710Z,3.3
2018-09-29T05:16:12.971Z,2.8
2018-09-29T05:16:42.276Z,3.1
2018-09-29T05:17:11.652Z,3.4
2018-09-29T05:17:40.939Z,3.2
2018-09-29T05:18:10.225Z,3.1
2018-09-29T05:18:39.543Z,3.4
2018-09-29T05:19:08.897Z,2.9
2018-09-29T05:19:38.176Z,3.3
2018-09-29T05:20:07.490Z,3.1
2018-09-29T05:20:36.761Z,3.2
2018-09-29T05:21:06.139Z,3.3
2018-09-29T05:21:35.412Z,3.5
2018-09-29T05:22:04.697Z,3.6
2018-09-29T05:22:33.990Z,3.3
2018-09-29T05:23:03.384Z,3.5
2018-09-29T05:23:32.633Z,3.1
2018-09-29T05:24:01.986Z,3.3
2018-09-29T05:24:31.296Z,3.3
2018-09-29T05:25:00.595Z,3.2
2018-09-29T05:25:29.940Z,3.4
2018-09-29T05:25:59.223Z,3.3
2018-09-29T05:26:28.499Z,3.3
2018-09-29T05:26:57.780Z,2.9
2018-09-29T05:27:27.064Z,3.3
2018-09-29T05:27:56.338Z,3.3
2018-09-29T05:28:25.640Z,2.9
2018-09-29T05:28:54.953Z,3.3
2018-09-29T05:29:24.306Z,3.2
2018-09-29T05:29:53.599Z,3.5
2018-09-29T05:30:22.889Z,3.9
2018-09-29T05:30:52.224Z,3.3
2018-09-29T05:31:21.513Z,3.3
2018-09-29T05:31:50.810Z,3.6
2018-09-29T05:32:20.127Z,3.3
2018-09-29T05:32:49.443Z,3.2
2018-09-29T05:33:18.792Z,3.6
2018-09-29T05:33:48.088Z,3.3
2018-09-29T05:34:17.425Z,3.1
2018-09-29T05:34:46.749Z,3.2
2018-09-29T05:35:16.089Z,3.2
2018-09-29T05:35:45.416Z,3.3
2018-09-29T05:36:14.696Z,3.2
2018-09-29T05:36:43.990Z,3.3
2018-09-29T05:37:13.307Z,3.3
2018-09-29T05:37:42.690Z,3.6
2018-09-29T05:38:12.002Z,3.4
2018-09-29T05:38:41.284Z,3
2018-09-29T05:39:10.617Z,3.2
2018-09-29T05:39:41.020Z,3.1
2018-09-29T05:40:10.308Z,3.3
2018-09-29T05:40:39.645Z,3
2018-09-29T05:41:08.976Z,3.3
2018-09-29T05:41:38.261Z,3.3
2018-09-29T05:42:07.585Z,3.3
2018-09-29T05:42:36.928Z,3.2
2018-09-29T05:43:06.239Z,3.3
2018-09-29T05:43:35.546Z,3.2
2018-09-29T05:44:04.910Z,3.1
2018-09-29T05:44:34.237Z,3.3
2018-09-29T05:45:03.593Z,3.1
2018-09-29T05:45:32.922Z,3.3
2018-09-29T05:46:02.290Z,3
2018-09-29T05:46:31.636Z,3
2018-09-29T05:47:00.960Z,3.2
2018-09-29T05:47:30.254Z,3.3
2018-09-29T05:47:59.566Z,3
2018-09-29T05:48:28.884Z,3.3
2018-09-29T05:48:58.139Z,3.1
2018-09-29T05:49:27.465Z,3
2018-09-29T05:49:56.870Z,2.9
2018-09-29T05:50:27.215Z,3.1
2018-09-29T05:50:56.457Z,3
2018-09-29T05:51:25.752Z,3.3
2018-09-29T05:51:55.038Z,3.1
2018-09-29T05:52:24.385Z,3
2018-09-29T05:52:53.716Z,3.2
2018-09-29T05:53:24.008Z,3.1
2018-09-29T05:53:53.342Z,2.9
2018-09-29T05:54:22.550Z,3.2
2018-09-29T05:54:51.891Z,2.8
2018-09-29T05:55:21.199Z,3.3
2018-09-29T05:55:50.489Z,3
2018-09-29T05:56:19.846Z,3
2018-09-29T05:56:49.222Z,2.9
2018-09-29T05:57:18.528Z,2.9
2018-09-29T05:57:47.816Z,3.2
2018-09-29T05:58:17.081Z,3
2018-09-29T05:58:46.390Z,3
2018-09-29T05:59:15.761Z,2.9
2018-09-29T05:59:45.066Z,2.9
2018-09-29T06:00:14.464Z,3
2018-09-29T06:00:44.750Z,2.9
2018-09-29T06:01:14.024Z,3.3
2018-09-29T06:01:43.301Z,3
2018-09-29T06:02:12.608Z,3.3
2018-09-29T06:02:41.911Z,3
2018-09-29T06:03:11.201Z,2.8
2018-09-29T06:03:40.497Z,3.1
2018-09-29T06:04:09.790Z,3
2018-09-29T06:04:39.126Z,2.9
2018-09-29T06:05:08.452Z,2.9
2018-09-29T06:05:37.924Z,3
2018-09-29T06:06:07.092Z,2.9
2018-09-29T06:06:36.403Z,3.3
2018-09-29T06:07:05.778Z,3
2018-09-29T06:07:35.043Z,3.1
2018-09-29T06:08:04.260Z,3.2
2018-09-29T06:08:33.543Z,3.1
2018-09-29T06:09:03.832Z,3
2018-09-29T06:09:33.151Z,3.1
2018-09-29T06:10:02.452Z,3.2
2018-09-29T06:10:32.133Z,3.1
2018-09-29T06:11:01.408Z,2.8
2018-09-29T06:11:30.686Z,3.2
2018-09-29T06:11:59.965Z,3.2
2018-09-29T06:12:29.254Z,3.3
2018-09-29T06:12:58.582Z,3
2018-09-29T06:13:27.910Z,3.1
2018-09-29T06:13:57.212Z,3
2018-09-29T06:14:26.554Z,3.2
2018-09-29T06:14:55.893Z,3.2
2018-09-29T06:15:25.214Z,3.3
2018-09-29T06:15:54.472Z,3.5
2018-09-29T06:16:23.801Z,3.5
2018-09-29T06:16:54.077Z,3.2
2018-09-29T06:17:23.395Z,3.1
2018-09-29T06:17:52.698Z,3.3
2018-09-29T06:18:22.041Z,2.9
2018-09-29T06:18:51.322Z,3
2018-09-29T06:19:20.632Z,3.2
2018-09-29T06:19:49.982Z,3.6
2018-09-29T06:20:19.289Z,3
2018-09-29T06:20:48.809Z,3.6
2018-09-29T06:21:18.005Z,2.9
2018-09-29T06:21:47.344Z,3.5
2018-09-29T06:22:16.633Z,3.2
2018-09-29T06:22:45.921Z,3.5
2018-09-29T06:23:15.236Z,3.4
2018-09-29T06:23:44.547Z,3.5
2018-09-29T06:24:14.825Z,3.4
2018-09-29T06:24:44.376Z,3.1
2018-09-29T06:25:13.652Z,3.4
2018-09-29T06:25:43.185Z,3.1
2018-09-29T06:26:12.449Z,3.2
2018-09-29T06:26:41.708Z,3.1
2018-09-29T06:27:10.992Z,3.5
2018-09-29T06:27:40.317Z,3.2
2018-09-29T06:28:09.653Z,3.2
2018-09-29T06:28:38.996Z,3.1
2018-09-29T06:29:08.295Z,3.7
2018-09-29T06:29:37.587Z,3.5
2018-09-29T06:30:06.889Z,3.7
2018-09-29T06:30:36.193Z,3.6
2018-09-29T06:31:05.554Z,3.3
2018-09-29T06:31:34.834Z,3.5
2018-09-29T06:32:04.109Z,3.4
2018-09-29T06:32:33.504Z,3.1
2018-09-29T06:33:02.859Z,3.5
2018-09-29T06:33:32.171Z,3.5
2018-09-29T06:34:01.447Z,3.4
2018-09-29T06:34:30.743Z,3.1
2018-09-29T06:35:00.046Z,3.8
2018-09-29T06:35:29.440Z,3.2
2018-09-29T06:35:58.783Z,3.2
2018-09-29T06:36:28.045Z,3.3
2018-09-29T06:36:57.420Z,4
2018-09-29T06:37:26.679Z,3.5
2018-09-29T06:37:55.997Z,3.3
2018-09-29T06:38:25.304Z,3.3
2018-09-29T06:38:54.611Z,3.4
2018-09-29T06:39:23.892Z,3.4
2018-09-29T06:39:53.159Z,3
2018-09-29T06:40:22.439Z,3
2018-09-29T06:40:51.743Z,3.1
2018-09-29T06:41:21.097Z,3.4
2018-09-29T06:41:50.456Z,3.5
2018-09-29T06:42:19.748Z,3.5
2018-09-29T06:42:49.046Z,3.3
2018-09-29T06:43:19.256Z,3.3
2018-09-29T06:43:48.533Z,3
2018-09-29T06:44:17.840Z,3.3
2018-09-29T06:44:47.189Z,2.7
2018-09-29T06:45:16.539Z,3.1
2018-09-29T06:45:45.797Z,3.2
2018-09-29T06:46:15.189Z,3
2018-09-29T06:46:44.471Z,3
2018-09-29T06:47:13.796Z,3.2
2018-09-29T06:47:43.225Z,3.3
2018-09-29T06:48:12.431Z,3.2
2018-09-29T06:48:41.754Z,3.1
2018-09-29T06:49:11.120Z,3.3
2018-09-29T06:49:40.458Z,3.2